Flight Track Log - Related Links

Times and Time Zones

All times are in EDT time to prevent confusion due to time zone crossing. See the SWA1377 flight status page for this flight to view local times or setup timezone preferences in your user account.

Time Position Orientation Groundspeed Altitude Reporting Facility
EDT Latitude Longitude Course Direction KTS MPH feet Rate Location/Type
Sun 10:38:31 AM 41.8022 -87.6097 88° East 206 237 5,900  Level Chicago Center
Sun 10:39:33 AM 41.8039 -87.5036 89° East 275 316 9,600 3,659 Climbing Chicago Center
Sun 10:40:34 AM 41.8047 -87.3964 89° East 287 330 13,400 3,122 Climbing Chicago Center
Sun 10:41:36 AM 41.7875 -87.2767 101° East 325 374 16,000 2,710 Climbing Chicago Center
Sun 10:42:00 AM 41.7500 -87.0488 90° East  Level FlightAware Approximate
Sun 10:42:38 AM 41.7719 -87.1417 99° East 362 417 19,000  Level Chicago Center
Sun 10:43:00 AM 41.7500 -86.9078 90° East  Level FlightAware Approximate
Sun 10:43:39 AM 41.7800 -87.0028 86° East 370 426 22,100  Level Chicago Center
Sun 10:44:41 AM 41.7975 -86.8289 82° East 392 451 25,200 2,439 Climbing Chicago Center
Sun 10:45:42 AM 41.8111 -86.6939 82° East 404 465 27,100 2,000 Climbing Chicago Center
Sun 10:46:44 AM 41.8264 -86.5383 82° East 419 482 29,300 2,032 Climbing Chicago Center
Sun 10:47:46 AM 41.8425 -86.3817 82° East 423 487 31,300 2,146 Climbing Chicago Center
Sun 10:48:47 AM 41.8606 -86.1936 83° East 424 488 33,700 1,805 Climbing Chicago Center
Sun 10:49:49 AM 41.8758 -86.0333 83° East 430 495 35,000 1,268 Climbing Chicago Center
Sun 10:50:50 AM 41.8917 -85.8697 83° East 439 505 36,300 976 Climbing Chicago Center
Sun 10:51:52 AM 41.9078 -85.7031 83° East 446 513 37,000 341 Climbing Chicago Center
Sun 10:52:53 AM 41.9236 -85.5386 83° East 443 510 37,000  Level Chicago Center
Sun 10:53:55 AM 41.9383 -85.3736 83° East 442 509 37,000  Level Chicago Center
Sun 10:54:56 AM 41.9514 -85.2078 84° East 443 510 37,000  Level Chicago Center
Sun 10:55:57 AM 41.9522 -85.0456 90° East 440 506 37,000  Level Cleveland Center
Sun 10:56:57 AM 41.9525 -84.8750 90° East 440 506 37,000  Level Cleveland Center
Sun 10:57:57 AM 41.9503 -84.7128 91° East 440 506 37,000  Level Cleveland Center
Sun 10:58:57 AM 41.9497 -84.5481 90° East 440 506 37,000  Level Cleveland Center
Sun 10:59:57 AM 41.9511 -84.3861 89° East 440 506 37,000  Level Cleveland Center
Sun 11:00:57 AM 41.9425 -84.2042 94° East 440 506 37,000  Level Cleveland Center
Sun 11:01:57 AM 41.9456 -84.0367 89° East 440 506 37,000  Level Cleveland Center
Sun 11:02:57 AM 41.9650 -83.8731 81° East 440 506 37,000  Level Cleveland Center
Sun 11:03:58 AM 41.9883 -83.7067 79° East 440 506 37,000  Level Cleveland Center
Sun 11:04:57 AM 42.0114 -83.5400 79° East 445 512 37,000  Level Cleveland Center
Sun 11:05:57 AM 42.0344 -83.3706 80° East 450 518 37,000  Level Cleveland Center
Sun 11:06:57 AM 42.0525 -83.2231 81° East 450 518 37,000  Level Cleveland Center
Sun 11:07:57 AM 42.0733 -83.0336 82° East 450 518 37,000  Level Cleveland Center
Sun 11:08:57 AM 42.0956 -82.8694 80° East 450 518 37,000 -500 Level Cleveland Center
Sun 11:09:57 AM 42.1156 -82.6939 81° East 456 525 36,000 -950 Descending Cleveland Center
Sun 11:10:57 AM 42.1394 -82.5208 79° East 463 533 35,100 -500 Descending Cleveland Center
Sun 11:11:57 AM 42.1611 -82.3478 80° East 463 533 35,000 -50 Descending Cleveland Center
Sun 11:12:57 AM 42.1803 -82.1775 81° East 463 533 35,000 -400 Level Cleveland Center
Sun 11:13:57 AM 42.2033 -82.0042 80° East 468 539 34,200 -900 Descending Cleveland Center
Sun 11:14:57 AM 42.2219 -81.8308 82° East 463 533 33,200 -950 Descending Cleveland Center
Sun 11:15:57 AM 42.2425 -81.6544 81° East 469 540 32,300 -950 Descending Cleveland Center
Sun 11:16:57 AM 42.2628 -81.4808 81° East 469 540 31,300 -650 Descending Cleveland Center
Sun 11:17:57 AM 42.2808 -81.3100 82° East 462 532 31,000 -500 Descending Cleveland Center
Sun 11:18:57 AM 42.3025 -81.1361 80° East 467 537 30,300 -850 Descending Cleveland Center
Sun 11:19:57 AM 42.3200 -80.9650 82° East 467 537 29,300 -950 Descending Cleveland Center
Sun 11:20:57 AM 42.3369 -80.8164 81° East 462 532 28,400 -950 Descending Cleveland Center
Sun 11:21:57 AM 42.3539 -80.6506 82° East 451 519 27,400 -700 Descending Cleveland Center
Sun 11:22:57 AM 42.3683 -80.4906 83° East 444 511 27,000 -650 Descending Cleveland Center
Sun 11:23:57 AM 42.3994 -80.3331 75° East 432 497 26,100 -1,835 Descending Cleveland Center
Sun 11:24:58 AM 42.4511 -80.1836 65° Northeast 425 489 23,300 -2,650 Descending Cleveland Center
Sun 11:25:57 AM 42.5047 -80.0256 65° Northeast 430 495 20,800 -2,118 Descending Cleveland Center
Sun 11:26:57 AM 42.5500 -79.9011 64° Northeast 420 483 19,100 -1,700 Descending Cleveland Center
Sun 11:27:57 AM 42.5969 -79.7708 64° Northeast 394 453 17,400 -1,900 Descending Cleveland Center
Sun 11:28:57 AM 42.6378 -79.6461 66° East 369 425 15,300 -1,950 Descending Cleveland Center
Sun 11:29:57 AM 42.6806 -79.5242 64° Northeast 355 409 13,500 -1,750 Descending Cleveland Center
Sun 11:30:57 AM 42.7147 -79.4106 68° East 343 395 11,800 -1,388 Descending Cleveland Center
Sun 11:31:58 AM 42.7511 -79.3025 65° Northeast 324 373 10,700 -1,350 Descending Cleveland Center
Sun 11:32:57 AM 42.7894 -79.1942 64° Northeast 291 335 9,100 -857 Descending Cleveland Center
Sun 11:33:57 AM 42.8469 -79.1192 44° Northeast 279 321 9,000 -650 Descending Cleveland Center
Sun 11:34:57 AM 42.9067 -79.0639 34° Northeast 279 321 7,800 -1,000 Descending Cleveland Center
Sun 11:35:57 AM 42.9642 -78.9972 40° Northeast 279 321 7,000 -950 Descending Cleveland Center
Sun 11:36:57 AM 43.0022 -78.8997 62° Northeast 261 300 5,900 -1,082 Descending Cleveland Center
Sun 11:37:59 AM 43.0167 -78.8167 77° East 243 280 4,800 -934 Descending Buffalo TRACON
Sun 11:38:59 AM 43.0333 -78.7167 77° East 221 254 4,000 -950 Descending Buffalo TRACON
Sun 11:39:59 AM 43.0333 -78.6667 90° East 153 176 2,900 -950 Descending Buffalo TRACON
Sun 11:40:59 AM 43.0000 -78.6667 180° South 129 148 2,100 -750 Descending Buffalo TRACON
Sun 11:41:59 AM 42.9667 -78.6833 200° South 125 144 1,400 -700 Descending Buffalo TRACON

Login

Don't have an account? Register now (free) for customized features, flight alerts, and more!